createdAt,value
2022-09-22T00:01:15.348Z,11.00
2022-09-22T00:03:46.231Z,11.00
2022-09-22T00:06:16.514Z,11.00
2022-09-22T00:08:46.455Z,11.00
2022-09-22T00:11:18.584Z,11.00
2022-09-22T00:13:48.945Z,11.00
2022-09-22T00:16:18.017Z,11.10
2022-09-22T00:18:47.874Z,11.00
2022-09-22T00:21:18.705Z,11.10
2022-09-22T00:23:47.693Z,11.10
2022-09-22T00:26:17.082Z,11.10
2022-09-22T00:28:46.533Z,11.00
2022-09-22T00:31:16.983Z,11.00
2022-09-22T00:33:46.314Z,11.00
2022-09-22T00:36:16.251Z,10.90
2022-09-22T00:38:44.535Z,10.90
2022-09-22T00:41:18.884Z,10.90
2022-09-22T00:43:49.187Z,10.80
2022-09-22T00:46:19.751Z,10.80
2022-09-22T00:48:49.544Z,10.70
2022-09-22T00:51:21.753Z,10.60
2022-09-22T00:53:49.893Z,10.70
2022-09-22T00:56:20.661Z,10.60
2022-09-22T00:58:52.135Z,10.60
2022-09-22T01:01:20.419Z,10.60
2022-09-22T01:03:48.591Z,10.50
2022-09-22T01:06:21.751Z,10.50
2022-09-22T01:08:50.399Z,10.50
2022-09-22T01:11:20.690Z,10.50
2022-09-22T01:13:57.203Z,10.50
2022-09-22T01:16:41.319Z,10.50
2022-09-22T01:19:41.105Z,10.40
2022-09-22T01:22:20.363Z,10.40
2022-09-22T01:25:03.685Z,10.40
2022-09-22T01:28:03.005Z,10.40
2022-09-22T01:30:36.663Z,10.40
2022-09-22T01:33:23.193Z,10.30
2022-09-22T01:36:00.418Z,10.30
2022-09-22T01:38:32.665Z,10.20
2022-09-22T01:41:03.775Z,10.20
2022-09-22T01:43:38.784Z,10.20
2022-09-22T01:46:12.163Z,10.20
2022-09-22T01:48:42.659Z,10.10
2022-09-22T01:51:14.804Z,10.10
2022-09-22T01:53:45.363Z,10.10
2022-09-22T01:56:14.489Z,10.10
2022-09-22T01:58:45.433Z,10.10
2022-09-22T02:01:16.578Z,10.10
2022-09-22T02:03:46.363Z,10.10
2022-09-22T02:06:17.095Z,10.10
2022-09-22T02:08:49.124Z,10.00
2022-09-22T02:11:17.237Z,10.00
2022-09-22T02:13:45.661Z,10.00
2022-09-22T02:16:17.307Z,9.90
2022-09-22T02:18:48.075Z,9.90
2022-09-22T02:21:16.947Z,9.90
2022-09-22T02:23:45.572Z,9.90
2022-09-22T02:26:14.018Z,9.80
2022-09-22T02:28:42.793Z,9.80
2022-09-22T02:31:19.896Z,9.80
2022-09-22T02:33:50.219Z,9.80
2022-09-22T02:36:46.088Z,9.80
2022-09-22T02:39:17.850Z,9.80
2022-09-22T02:41:57.982Z,9.80
2022-09-22T02:44:29.980Z,9.70
2022-09-22T02:47:01.304Z,9.60
2022-09-22T02:49:30.731Z,9.60
2022-09-22T02:51:59.249Z,9.60
2022-09-22T02:54:27.332Z,9.60
2022-09-22T02:56:55.690Z,9.60
2022-09-22T02:59:24.013Z,9.50
2022-09-22T03:01:52.231Z,9.50
2022-09-22T03:04:20.596Z,9.50
2022-09-22T03:06:50.123Z,9.50
2022-09-22T03:09:18.267Z,9.40
2022-09-22T03:11:46.529Z,9.40
2022-09-22T03:14:14.617Z,9.40
2022-09-22T03:16:42.758Z,9.40
2022-09-22T03:19:11.117Z,9.30
2022-09-22T03:21:39.273Z,9.30
2022-09-22T03:24:08.935Z,9.30
2022-09-22T03:26:37.105Z,9.30
2022-09-22T03:29:05.622Z,9.30
2022-09-22T03:31:33.668Z,9.20
2022-09-22T03:34:02.015Z,9.20
2022-09-22T03:36:30.112Z,9.20
2022-09-22T03:38:59.326Z,9.10
2022-09-22T03:41:28.851Z,9.10
2022-09-22T03:43:57.062Z,9.00
2022-09-22T03:46:26.059Z,9.00
2022-09-22T03:48:54.442Z,9.00
2022-09-22T03:51:22.540Z,9.00
2022-09-22T03:53:50.642Z,9.00
2022-09-22T03:56:18.993Z,8.90
2022-09-22T03:58:48.507Z,8.90
2022-09-22T04:01:16.614Z,8.90
2022-09-22T04:03:44.741Z,8.90
2022-09-22T04:06:12.902Z,8.80
2022-09-22T04:08:40.988Z,8.80
2022-09-22T04:11:09.105Z,8.80
2022-09-22T04:13:37.462Z,8.80
2022-09-22T04:16:07.617Z,8.80
2022-09-22T04:18:39.708Z,8.80
2022-09-22T04:21:08.133Z,8.70
2022-09-22T04:23:36.426Z,8.70
2022-09-22T04:26:04.714Z,8.70
2022-09-22T04:28:33.213Z,8.70
2022-09-22T04:31:01.344Z,8.60
2022-09-22T04:33:30.838Z,8.70
2022-09-22T04:35:58.972Z,8.60
2022-09-22T04:38:27.155Z,8.70
2022-09-22T04:40:55.277Z,8.70
2022-09-22T04:43:23.364Z,8.70
2022-09-22T04:45:51.538Z,8.60
2022-09-22T04:48:19.713Z,8.60
2022-09-22T04:50:49.199Z,8.60
2022-09-22T04:53:17.326Z,8.50
2022-09-22T04:55:45.393Z,8.50
2022-09-22T04:58:13.969Z,8.50
2022-09-22T05:00:42.216Z,8.50
2022-09-22T05:03:10.474Z,8.40
2022-09-22T05:05:38.676Z,8.40
2022-09-22T05:08:08.234Z,8.40
2022-09-22T05:10:36.811Z,8.40
2022-09-22T05:13:05.826Z,8.30
2022-09-22T05:15:34.781Z,8.40
2022-09-22T05:18:03.131Z,8.30
2022-09-22T05:20:31.299Z,8.40
2022-09-22T05:22:59.370Z,8.40
2022-09-22T05:25:29.095Z,8.40
2022-09-22T05:27:57.690Z,8.40
2022-09-22T05:30:27.116Z,8.40
2022-09-22T05:32:55.246Z,8.40
2022-09-22T05:35:24.634Z,8.40
2022-09-22T05:37:53.362Z,8.40
2022-09-22T05:40:23.991Z,8.40
2022-09-22T05:42:54.260Z,8.40
2022-09-22T05:45:22.546Z,8.40
2022-09-22T05:47:50.915Z,8.50
2022-09-22T05:50:21.242Z,8.50
2022-09-22T05:52:49.347Z,8.50
2022-09-22T05:55:17.827Z,8.60
2022-09-22T05:57:45.939Z,8.60
2022-09-22T06:00:16.627Z,8.60
2022-09-22T06:02:45.207Z,8.60
2022-09-22T06:05:16.505Z,8.60
2022-09-22T06:07:45.716Z,8.70
2022-09-22T06:10:13.868Z,8.70
2022-09-22T06:12:41.960Z,8.80
2022-09-22T06:15:11.227Z,8.80
2022-09-22T06:17:40.776Z,8.90
2022-09-22T06:20:09.849Z,8.90
2022-09-22T06:22:38.006Z,8.90
2022-09-22T06:25:09.109Z,9.00
2022-09-22T06:27:37.298Z,9.10
2022-09-22T06:30:10.133Z,9.10
2022-09-22T06:32:39.147Z,9.20
2022-09-22T06:35:09.485Z,9.20
2022-09-22T06:37:38.584Z,9.30
2022-09-22T06:40:11.082Z,9.40
2022-09-22T06:42:42.466Z,9.40
2022-09-22T06:45:12.659Z,9.50
2022-09-22T06:47:41.575Z,9.50
2022-09-22T06:50:11.292Z,9.60
2022-09-22T06:52:39.388Z,9.60
2022-09-22T06:55:10.703Z,9.70
2022-09-22T06:57:38.903Z,9.80
2022-09-22T07:00:08.790Z,9.80
2022-09-22T07:02:36.952Z,9.90
2022-09-22T07:05:05.716Z,10.00
2022-09-22T07:07:35.185Z,10.00
2022-09-22T07:10:03.322Z,10.10
2022-09-22T07:12:31.501Z,10.20
2022-09-22T07:14:59.670Z,10.30
2022-09-22T07:17:31.821Z,10.30
2022-09-22T07:19:59.970Z,10.40
2022-09-22T07:22:28.111Z,10.50
2022-09-22T07:24:57.573Z,10.60
2022-09-22T07:27:26.040Z,10.70
2022-09-22T07:29:55.019Z,10.80
2022-09-22T07:32:23.195Z,10.90
2022-09-22T07:34:52.694Z,10.90
2022-09-22T07:37:20.861Z,11.00
2022-09-22T07:39:48.944Z,11.10
2022-09-22T07:42:20.032Z,11.20
2022-09-22T07:45:19.982Z,11.30
2022-09-22T07:48:05.624Z,11.40
2022-09-22T07:50:34.648Z,11.60
2022-09-22T07:53:04.072Z,11.70
2022-09-22T07:55:32.186Z,11.80
2022-09-22T07:58:01.983Z,11.80
2022-09-22T08:00:32.849Z,11.90
2022-09-22T08:03:01.542Z,12.00
2022-09-22T08:05:30.247Z,12.10
2022-09-22T08:07:58.485Z,12.20
2022-09-22T08:10:27.160Z,12.40
2022-09-22T08:12:58.020Z,12.50
2022-09-22T08:15:27.671Z,12.50
2022-09-22T08:17:58.114Z,12.60
2022-09-22T08:20:29.014Z,12.70
2022-09-22T08:22:58.151Z,12.80
2022-09-22T08:25:26.422Z,12.90
2022-09-22T08:27:54.579Z,13.00
2022-09-22T08:30:22.759Z,13.20
2022-09-22T08:32:52.254Z,13.30
2022-09-22T08:35:20.486Z,13.40
2022-09-22T08:37:51.702Z,13.40
2022-09-22T08:40:23.757Z,13.50
2022-09-22T08:42:52.681Z,13.60
2022-09-22T08:45:28.227Z,13.70
2022-09-22T08:48:18.063Z,13.80
2022-09-22T08:51:07.700Z,13.90
2022-09-22T08:53:38.576Z,14.10
2022-09-22T08:56:14.711Z,14.20
2022-09-22T08:58:46.195Z,14.30
2022-09-22T09:01:35.307Z,14.40
2022-09-22T09:04:19.028Z,14.40
2022-09-22T09:06:50.012Z,14.40
2022-09-22T09:09:38.171Z,14.50
2022-09-22T09:12:25.687Z,14.60
2022-09-22T09:15:16.865Z,14.60
2022-09-22T09:17:46.829Z,14.50
2022-09-22T09:20:19.377Z,14.60
2022-09-22T09:22:50.804Z,14.80
2022-09-22T09:25:22.994Z,14.90
2022-09-22T09:27:54.644Z,15.00
2022-09-22T09:30:23.129Z,15.20
2022-09-22T09:32:53.150Z,15.30
2022-09-22T09:35:26.710Z,15.40
2022-09-22T09:37:58.807Z,15.30
2022-09-22T09:40:27.751Z,15.30
2022-09-22T09:43:03.330Z,15.30
2022-09-22T09:45:35.589Z,15.30
2022-09-22T09:48:16.102Z,15.40
2022-09-22T09:50:45.662Z,15.40
2022-09-22T09:53:31.737Z,15.40
2022-09-22T09:55:59.977Z,15.40
2022-09-22T09:58:45.643Z,15.40
2022-09-22T10:01:14.776Z,15.40
2022-09-22T10:03:46.827Z,15.50
2022-09-22T10:06:17.707Z,15.50
2022-09-22T10:08:49.264Z,15.50
2022-09-22T10:11:17.505Z,15.60
2022-09-22T10:13:45.647Z,15.80
2022-09-22T10:16:22.747Z,16.10
2022-09-22T10:18:52.323Z,16.40
2022-09-22T10:21:22.952Z,16.60
2022-09-22T10:23:51.876Z,16.60
2022-09-22T10:26:23.740Z,16.60
2022-09-22T10:29:16.685Z,16.50
2022-09-22T10:32:07.500Z,16.50
2022-09-22T10:34:37.127Z,16.60
2022-09-22T10:37:10.647Z,16.60
2022-09-22T10:39:44.893Z,16.50
2022-09-22T10:42:34.623Z,16.40
2022-09-22T10:45:05.238Z,16.30
2022-09-22T10:47:40.739Z,16.20
2022-09-22T10:50:31.331Z,16.30
2022-09-22T10:53:12.748Z,16.50
2022-09-22T10:55:44.116Z,16.70
2022-09-22T10:58:28.747Z,16.90
2022-09-22T11:01:09.374Z,17.00
2022-09-22T11:04:07.970Z,17.10
2022-09-22T11:07:07.568Z,17.30
2022-09-22T11:09:59.264Z,17.50
2022-09-22T11:12:39.513Z,17.60
2022-09-22T11:15:33.976Z,17.50
2022-09-22T11:18:31.114Z,17.50
2022-09-22T11:21:02.034Z,17.20
2022-09-22T11:23:57.104Z,17.00
2022-09-22T11:26:43.123Z,16.70
2022-09-22T11:29:59.387Z,16.40
2022-09-22T11:32:43.963Z,16.30
2022-09-22T11:35:28.736Z,16.30
2022-09-22T11:38:09.513Z,16.50
2022-09-22T11:41:17.409Z,16.70
2022-09-22T11:44:01.649Z,17.00
2022-09-22T11:46:37.577Z,17.30
2022-09-22T11:49:13.014Z,17.30
2022-09-22T11:51:56.397Z,17.20
2022-09-22T11:54:51.838Z,17.10
2022-09-22T11:57:23.712Z,16.90
2022-09-22T11:59:54.867Z,16.80
2022-09-22T12:02:26.981Z,16.60
2022-09-22T12:04:58.408Z,16.50
2022-09-22T12:07:30.179Z,16.50
2022-09-22T12:10:00.782Z,16.40
2022-09-22T12:12:29.520Z,16.30
2022-09-22T12:15:02.246Z,16.30
2022-09-22T12:17:36.738Z,16.20
2022-09-22T12:20:15.939Z,16.10
2022-09-22T12:23:06.617Z,16.10
2022-09-22T12:25:49.699Z,16.00
2022-09-22T12:28:19.408Z,16.10
2022-09-22T12:31:04.014Z,16.20
2022-09-22T12:33:33.193Z,16.20
2022-09-22T12:36:01.333Z,16.30
2022-09-22T12:38:30.534Z,16.40
2022-09-22T12:41:02.395Z,16.60
2022-09-22T12:43:30.735Z,16.80
2022-09-22T12:46:00.871Z,17.00
2022-09-22T12:48:30.839Z,17.30
2022-09-22T12:51:32.551Z,17.60
2022-09-22T12:54:28.717Z,17.80
2022-09-22T12:56:59.164Z,18.00
2022-09-22T13:00:32.291Z,18.20
2022-09-22T13:03:03.103Z,18.30
2022-09-22T13:05:46.782Z,18.40
2022-09-22T13:08:19.857Z,18.50
2022-09-22T13:10:59.479Z,18.50
2022-09-22T13:13:42.664Z,18.60
2022-09-22T13:16:37.088Z,18.50
2022-09-22T13:19:10.480Z,18.40
2022-09-22T13:21:41.594Z,18.30
2022-09-22T13:24:26.495Z,18.20
2022-09-22T13:27:04.728Z,18.10
2022-09-22T13:29:32.904Z,18.00
2022-09-22T13:32:00.993Z,17.90
2022-09-22T13:34:31.703Z,17.90
2022-09-22T13:37:01.790Z,18.00
2022-09-22T13:39:32.223Z,18.10
2022-09-22T13:42:05.586Z,18.20
2022-09-22T13:44:34.713Z,18.20
2022-09-22T13:47:06.895Z,18.40
2022-09-22T13:49:40.975Z,18.40
2022-09-22T13:52:10.851Z,18.60
2022-09-22T13:54:39.223Z,18.60
2022-09-22T13:57:16.718Z,18.70
2022-09-22T13:59:45.074Z,18.70
2022-09-22T14:02:14.334Z,18.70
2022-09-22T14:04:52.371Z,18.70
2022-09-22T14:07:23.005Z,18.50
2022-09-22T14:09:51.157Z,18.50
2022-09-22T14:12:19.293Z,18.50
2022-09-22T14:14:47.455Z,18.50
2022-09-22T14:17:17.296Z,18.40
2022-09-22T14:19:47.579Z,18.40
2022-09-22T14:22:19.108Z,18.30
2022-09-22T14:24:49.496Z,18.30
2022-09-22T14:27:21.495Z,18.20
2022-09-22T14:29:51.211Z,18.20
2022-09-22T14:32:24.935Z,18.10
2022-09-22T14:34:56.395Z,18.10
2022-09-22T14:37:28.997Z,18.10
2022-09-22T14:40:00.595Z,18.00
2022-09-22T14:42:30.200Z,18.00
2022-09-22T14:45:21.123Z,17.90
2022-09-22T14:47:49.940Z,17.80
2022-09-22T14:50:20.166Z,17.80
2022-09-22T14:52:57.716Z,17.70
2022-09-22T14:55:34.477Z,17.60
2022-09-22T14:58:05.426Z,17.60
2022-09-22T15:00:51.231Z,17.50
2022-09-22T15:03:22.765Z,17.50
2022-09-22T15:05:51.366Z,17.40
2022-09-22T15:08:25.038Z,17.30
2022-09-22T15:10:53.852Z,17.20
2022-09-22T15:13:30.656Z,17.20
2022-09-22T15:15:59.002Z,17.00
2022-09-22T15:18:30.559Z,16.90
2022-09-22T15:21:00.154Z,16.90
2022-09-22T15:23:31.705Z,16.80
2022-09-22T15:26:03.719Z,16.80
2022-09-22T15:28:37.184Z,16.70
2022-09-22T15:31:05.895Z,16.60
2022-09-22T15:33:34.036Z,16.60
2022-09-22T15:36:03.937Z,16.60
2022-09-22T15:38:35.431Z,16.50
2022-09-22T15:41:03.713Z,16.50
2022-09-22T15:43:32.238Z,16.50
2022-09-22T15:46:01.970Z,16.40
2022-09-22T15:48:31.864Z,16.40
2022-09-22T15:51:02.860Z,16.40
2022-09-22T15:53:31.599Z,16.30
2022-09-22T15:56:04.257Z,16.30
2022-09-22T15:58:36.058Z,16.30
2022-09-22T16:01:05.408Z,16.20
2022-09-22T16:03:36.955Z,16.20
2022-09-22T16:06:11.440Z,16.00
2022-09-22T16:08:42.547Z,16.00
2022-09-22T16:11:14.049Z,15.90
2022-09-22T16:13:42.437Z,15.80
2022-09-22T16:16:10.762Z,15.80
2022-09-22T16:18:41.861Z,15.70
2022-09-22T16:21:19.792Z,15.60
2022-09-22T16:23:47.952Z,15.60
2022-09-22T16:26:17.521Z,15.50
2022-09-22T16:28:45.672Z,15.40
2022-09-22T16:31:15.457Z,15.30
2022-09-22T16:33:43.930Z,15.20
2022-09-22T16:36:12.156Z,15.10
2022-09-22T16:38:40.454Z,15.00
2022-09-22T16:41:18.268Z,14.90
2022-09-22T16:43:47.924Z,14.70
2022-09-22T16:46:28.583Z,14.60
2022-09-22T16:48:58.559Z,14.50
2022-09-22T16:51:26.964Z,14.40
2022-09-22T16:53:55.135Z,14.30
2022-09-22T16:56:25.027Z,14.10
2022-09-22T16:58:55.252Z,14.00
2022-09-22T17:01:23.715Z,13.90
2022-09-22T17:03:52.315Z,13.80
2022-09-22T17:06:23.128Z,13.70
2022-09-22T17:08:52.946Z,13.50
2022-09-22T17:11:21.806Z,13.50
2022-09-22T17:13:50.791Z,13.40
2022-09-22T17:16:24.536Z,13.30
2022-09-22T17:18:53.025Z,13.20
2022-09-22T17:21:22.504Z,13.20
2022-09-22T17:23:51.444Z,13.10
2022-09-22T17:26:19.949Z,13.10
2022-09-22T17:28:48.148Z,13.00
2022-09-22T17:31:16.590Z,12.90
2022-09-22T17:33:51.956Z,12.90
2022-09-22T17:36:21.941Z,12.80
2022-09-22T17:38:51.339Z,12.80
2022-09-22T17:41:20.671Z,12.70
2022-09-22T17:43:55.584Z,12.60
2022-09-22T17:46:25.075Z,12.50
2022-09-22T17:49:12.606Z,12.40
2022-09-22T17:51:59.476Z,12.30
2022-09-22T17:54:48.654Z,12.20
2022-09-22T17:57:18.582Z,12.10
2022-09-22T17:59:47.343Z,12.10
2022-09-22T18:02:16.741Z,12.00
2022-09-22T18:04:46.599Z,11.90
2022-09-22T18:07:17.762Z,11.80
2022-09-22T18:09:46.978Z,11.80
2022-09-22T18:12:21.357Z,11.70
2022-09-22T18:14:50.276Z,11.70
2022-09-22T18:17:19.499Z,11.70
2022-09-22T18:19:49.006Z,11.60
2022-09-22T18:22:21.039Z,11.50
2022-09-22T18:24:50.442Z,11.50
2022-09-22T18:27:19.621Z,11.40
2022-09-22T18:29:50.003Z,11.30
2022-09-22T18:32:19.648Z,11.20
2022-09-22T18:34:52.929Z,11.20
2022-09-22T18:37:21.212Z,11.10
2022-09-22T18:39:50.464Z,11.10
2022-09-22T18:42:19.057Z,11.00
2022-09-22T18:44:47.973Z,11.00
2022-09-22T18:47:18.467Z,10.90
2022-09-22T18:49:51.679Z,10.90
2022-09-22T18:52:23.019Z,10.80
2022-09-22T18:54:53.153Z,10.80
2022-09-22T18:57:21.718Z,10.70
2022-09-22T18:59:51.252Z,10.70
2022-09-22T19:02:22.498Z,10.70
2022-09-22T19:04:52.394Z,10.60
2022-09-22T19:07:42.532Z,10.60
2022-09-22T19:10:12.175Z,10.60
2022-09-22T19:12:40.493Z,10.50
2022-09-22T19:15:13.631Z,10.50
2022-09-22T19:17:44.237Z,10.50
2022-09-22T19:20:17.140Z,10.50
2022-09-22T19:22:45.839Z,10.40
2022-09-22T19:25:13.958Z,10.30
2022-09-22T19:27:42.116Z,10.20
2022-09-22T19:30:11.301Z,10.10
2022-09-22T19:32:39.810Z,10.10
2022-09-22T19:35:08.912Z,10.10
2022-09-22T19:37:38.432Z,10.10
2022-09-22T19:40:07.962Z,10.00
2022-09-22T19:42:40.276Z,10.00
2022-09-22T19:45:09.435Z,10.00
2022-09-22T19:47:37.812Z,10.00
2022-09-22T19:50:07.923Z,10.00
2022-09-22T19:52:36.295Z,10.00
2022-09-22T19:55:06.831Z,10.00
2022-09-22T19:57:36.265Z,9.90
2022-09-22T20:00:04.808Z,9.90
2022-09-22T20:02:32.957Z,9.90
2022-09-22T20:05:01.087Z,9.90
2022-09-22T20:07:29.173Z,9.80
2022-09-22T20:09:57.331Z,9.80
2022-09-22T20:12:26.795Z,9.70
2022-09-22T20:14:54.917Z,9.70
2022-09-22T20:17:24.151Z,9.60
2022-09-22T20:19:52.250Z,9.60
2022-09-22T20:22:23.130Z,9.50
2022-09-22T20:24:57.161Z,9.50
2022-09-22T20:27:28.015Z,9.40
2022-09-22T20:29:57.602Z,9.40
2022-09-22T20:32:26.382Z,9.40
2022-09-22T20:34:55.319Z,9.30
2022-09-22T20:37:24.445Z,9.30
2022-09-22T20:39:52.749Z,9.30
2022-09-22T20:42:21.349Z,9.20
2022-09-22T20:44:51.605Z,9.20
2022-09-22T20:47:21.197Z,9.10
2022-09-22T20:49:51.948Z,9.10
2022-09-22T20:52:21.057Z,9.10
2022-09-22T20:54:49.585Z,9.00
2022-09-22T20:57:17.941Z,9.00
2022-09-22T20:59:47.160Z,9.00
2022-09-22T21:02:17.008Z,8.90
2022-09-22T21:04:45.461Z,8.80
2022-09-22T21:07:13.764Z,8.80
2022-09-22T21:09:59.477Z,8.80
2022-09-22T21:12:31.323Z,8.70
2022-09-22T21:15:00.089Z,8.70
2022-09-22T21:17:31.064Z,8.70
2022-09-22T21:19:59.403Z,8.70
2022-09-22T21:22:28.293Z,8.60
2022-09-22T21:24:56.892Z,8.60
2022-09-22T21:27:25.559Z,8.60
2022-09-22T21:29:54.155Z,8.60
2022-09-22T21:32:22.507Z,8.50
2022-09-22T21:34:52.251Z,8.50
2022-09-22T21:37:24.153Z,8.40
2022-09-22T21:39:52.423Z,8.40
2022-09-22T21:42:20.779Z,8.40
2022-09-22T21:44:49.115Z,8.30
2022-09-22T21:47:17.382Z,8.30
2022-09-22T21:49:45.673Z,8.30
2022-09-22T21:52:16.334Z,8.30
2022-09-22T21:54:44.452Z,8.20
2022-09-22T21:57:12.715Z,8.20
2022-09-22T21:59:41.216Z,8.20
2022-09-22T22:02:09.302Z,8.20
2022-09-22T22:04:37.419Z,8.20
2022-09-22T22:07:05.681Z,8.10
2022-09-22T22:09:35.145Z,8.10
2022-09-22T22:12:04.140Z,8.00
2022-09-22T22:14:34.905Z,8.00
2022-09-22T22:17:03.264Z,8.00
2022-09-22T22:19:31.383Z,8.00
2022-09-22T22:21:59.519Z,7.90
2022-09-22T22:24:33.679Z,7.90
2022-09-22T22:27:05.719Z,7.90
2022-09-22T22:29:34.936Z,7.90
2022-09-22T22:32:03.935Z,8.00
2022-09-22T22:34:32.087Z,8.00
2022-09-22T22:37:00.490Z,8.00
2022-09-22T22:39:29.898Z,8.00
2022-09-22T22:41:58.081Z,8.00
2022-09-22T22:44:27.609Z,8.00
2022-09-22T22:46:55.971Z,8.00
2022-09-22T22:49:24.066Z,7.90
2022-09-22T22:51:52.453Z,7.90
2022-09-22T22:54:20.605Z,7.90
2022-09-22T22:56:51.251Z,7.90
2022-09-22T22:59:19.972Z,7.90
2022-09-22T23:01:49.540Z,7.90
2022-09-22T23:04:17.752Z,7.90
2022-09-22T23:06:46.211Z,7.80
2022-09-22T23:09:15.562Z,7.80
2022-09-22T23:11:43.887Z,7.80
2022-09-22T23:14:12.874Z,7.80
2022-09-22T23:16:43.181Z,7.80
2022-09-22T23:19:14.298Z,7.80
2022-09-22T23:21:42.636Z,7.80
2022-09-22T23:24:10.859Z,7.70
2022-09-22T23:26:39.109Z,7.70
2022-09-22T23:29:07.373Z,7.70
2022-09-22T23:31:35.543Z,7.70
2022-09-22T23:34:03.711Z,7.70
2022-09-22T23:36:33.209Z,7.60
2022-09-22T23:39:03.346Z,7.60
2022-09-22T23:41:31.765Z,7.60
2022-09-22T23:43:59.891Z,7.60
2022-09-22T23:46:28.154Z,7.60
2022-09-22T23:48:56.478Z,7.70
2022-09-22T23:51:24.760Z,7.60
2022-09-22T23:53:54.625Z,7.60
2022-09-22T23:56:22.756Z,7.60
2022-09-22T23:58:51.872Z,7.60
